sensor_id;sensor_type;location;lat;lon;timestamp;P1;durP1;ratioP1;P2;durP2;ratioP2
24547;SDS011;12713;51.624;4.924;2023-05-10T00:01:13;37.45;;;20.30;;
24547;SDS011;12713;51.624;4.924;2023-05-10T00:03:39;50.80;;;22.48;;
24547;SDS011;12713;51.624;4.924;2023-05-10T00:06:05;38.42;;;19.55;;
24547;SDS011;12713;51.624;4.924;2023-05-10T00:08:31;39.97;;;21.35;;
24547;SDS011;12713;51.624;4.924;2023-05-10T00:10:57;42.72;;;20.85;;
24547;SDS011;12713;51.624;4.924;2023-05-10T00:13:23;49.90;;;22.15;;
24547;SDS011;12713;51.624;4.924;2023-05-10T00:15:49;36.08;;;17.77;;
24547;SDS011;12713;51.624;4.924;2023-05-10T00:18:15;37.60;;;20.55;;
24547;SDS011;12713;51.624;4.924;2023-05-10T00:20:41;41.17;;;20.02;;
24547;SDS011;12713;51.624;4.924;2023-05-10T00:23:07;35.65;;;17.75;;
24547;SDS011;12713;51.624;4.924;2023-05-10T00:25:33;40.97;;;20.08;;
24547;SDS011;12713;51.624;4.924;2023-05-10T00:27:59;36.58;;;20.00;;
24547;SDS011;12713;51.624;4.924;2023-05-10T00:30:26;39.42;;;18.48;;
24547;SDS011;12713;51.624;4.924;2023-05-10T00:32:52;37.17;;;19.00;;
24547;SDS011;12713;51.624;4.924;2023-05-10T00:35:18;28.02;;;15.52;;
24547;SDS011;12713;51.624;4.924;2023-05-10T00:37:44;25.63;;;15.32;;
24547;SDS011;12713;51.624;4.924;2023-05-10T00:40:11;33.70;;;18.08;;
24547;SDS011;12713;51.624;4.924;2023-05-10T00:42:37;40.25;;;20.13;;
24547;SDS011;12713;51.624;4.924;2023-05-10T00:45:03;31.98;;;17.20;;
24547;SDS011;12713;51.624;4.924;2023-05-10T00:47:29;34.40;;;18.27;;
24547;SDS011;12713;51.624;4.924;2023-05-10T00:49:55;32.30;;;17.30;;
24547;SDS011;12713;51.624;4.924;2023-05-10T00:52:21;27.65;;;16.70;;
24547;SDS011;12713;51.624;4.924;2023-05-10T00:54:49;29.65;;;16.33;;
24547;SDS011;12713;51.624;4.924;2023-05-10T00:57:16;31.08;;;19.38;;
24547;SDS011;12713;51.624;4.924;2023-05-10T00:59:42;37.15;;;21.90;;
24547;SDS011;12713;51.624;4.924;2023-05-10T01:02:08;31.80;;;19.75;;
24547;SDS011;12713;51.624;4.924;2023-05-10T01:04:34;30.08;;;18.00;;
24547;SDS011;12713;51.624;4.924;2023-05-10T01:07:01;36.08;;;20.75;;
24547;SDS011;12713;51.624;4.924;2023-05-10T01:09:27;25.98;;;16.52;;
24547;SDS011;12713;51.624;4.924;2023-05-10T01:11:53;35.00;;;17.92;;
24547;SDS011;12713;51.624;4.924;2023-05-10T01:14:20;28.80;;;17.90;;
24547;SDS011;12713;51.624;4.924;2023-05-10T01:16:47;31.73;;;19.00;;
24547;SDS011;12713;51.624;4.924;2023-05-10T01:19:17;28.02;;;17.67;;
24547;SDS011;12713;51.624;4.924;2023-05-10T01:27:12;50.42;;;24.58;;
24547;SDS011;12713;51.624;4.924;2023-05-10T01:29:47;44.25;;;24.98;;
24547;SDS011;12713;51.624;4.924;2023-05-10T01:32:27;41.28;;;24.67;;
24547;SDS011;12713;51.624;4.924;2023-05-10T01:34:59;52.30;;;30.90;;
24547;SDS011;12713;51.624;4.924;2023-05-10T01:40:17;62.70;;;36.17;;
24547;SDS011;12713;51.624;4.924;2023-05-10T01:42:51;62.55;;;35.55;;
24547;SDS011;12713;51.624;4.924;2023-05-10T01:45:21;69.85;;;41.38;;
24547;SDS011;12713;51.624;4.924;2023-05-10T01:47:52;73.07;;;40.97;;
24547;SDS011;12713;51.624;4.924;2023-05-10T01:50:22;49.72;;;29.30;;
24547;SDS011;12713;51.624;4.924;2023-05-10T01:52:53;59.58;;;35.60;;
24547;SDS011;12713;51.624;4.924;2023-05-10T01:55:20;48.03;;;29.15;;
24547;SDS011;12713;51.624;4.924;2023-05-10T01:57:48;66.40;;;34.65;;
24547;SDS011;12713;51.624;4.924;2023-05-10T02:00:16;65.13;;;37.75;;
24547;SDS011;12713;51.624;4.924;2023-05-10T02:02:45;51.13;;;30.77;;
24547;SDS011;12713;51.624;4.924;2023-05-10T02:05:12;58.90;;;35.85;;
24547;SDS011;12713;51.624;4.924;2023-05-10T02:07:39;53.03;;;31.58;;
24547;SDS011;12713;51.624;4.924;2023-05-10T02:10:06;66.63;;;38.58;;
24547;SDS011;12713;51.624;4.924;2023-05-10T02:12:36;67.82;;;36.85;;
24547;SDS011;12713;51.624;4.924;2023-05-10T02:15:02;65.75;;;34.88;;
24547;SDS011;12713;51.624;4.924;2023-05-10T02:17:30;76.43;;;41.25;;
24547;SDS011;12713;51.624;4.924;2023-05-10T02:19:56;70.15;;;38.47;;
24547;SDS011;12713;51.624;4.924;2023-05-10T02:22:23;69.93;;;37.70;;
24547;SDS011;12713;51.624;4.924;2023-05-10T02:24:50;69.28;;;37.13;;
24547;SDS011;12713;51.624;4.924;2023-05-10T02:27:16;68.80;;;40.40;;
24547;SDS011;12713;51.624;4.924;2023-05-10T02:29:43;71.97;;;38.05;;
24547;SDS011;12713;51.624;4.924;2023-05-10T02:32:10;69.63;;;37.08;;
24547;SDS011;12713;51.624;4.924;2023-05-10T02:34:36;77.60;;;41.38;;
24547;SDS011;12713;51.624;4.924;2023-05-10T02:37:03;73.35;;;40.88;;
24547;SDS011;12713;51.624;4.924;2023-05-10T02:39:31;81.82;;;39.40;;
24547;SDS011;12713;51.624;4.924;2023-05-10T02:41:57;78.80;;;37.72;;
24547;SDS011;12713;51.624;4.924;2023-05-10T02:44:24;77.55;;;40.83;;
24547;SDS011;12713;51.624;4.924;2023-05-10T02:46:52;82.40;;;38.80;;
24547;SDS011;12713;51.624;4.924;2023-05-10T02:49:20;77.38;;;38.85;;
24547;SDS011;12713;51.624;4.924;2023-05-10T02:51:47;72.43;;;36.70;;
24547;SDS011;12713;51.624;4.924;2023-05-10T02:54:18;71.13;;;37.90;;
24547;SDS011;12713;51.624;4.924;2023-05-10T02:56:53;73.95;;;36.60;;
24547;SDS011;12713;51.624;4.924;2023-05-10T02:59:20;68.25;;;36.13;;
24547;SDS011;12713;51.624;4.924;2023-05-10T03:01:46;77.25;;;37.70;;
24547;SDS011;12713;51.624;4.924;2023-05-10T03:04:12;79.80;;;38.08;;
24547;SDS011;12713;51.624;4.924;2023-05-10T03:06:38;72.82;;;36.92;;
24547;SDS011;12713;51.624;4.924;2023-05-10T03:09:04;77.80;;;37.65;;
24547;SDS011;12713;51.624;4.924;2023-05-10T03:19:48;80.00;;;36.75;;
24547;SDS011;12713;51.624;4.924;2023-05-10T03:22:19;75.05;;;38.13;;
24547;SDS011;12713;51.624;4.924;2023-05-10T03:24:47;71.93;;;37.40;;
24547;SDS011;12713;51.624;4.924;2023-05-10T03:27:14;73.80;;;38.63;;
24547;SDS011;12713;51.624;4.924;2023-05-10T03:29:40;64.32;;;35.65;;
24547;SDS011;12713;51.624;4.924;2023-05-10T03:32:07;66.40;;;36.60;;
24547;SDS011;12713;51.624;4.924;2023-05-10T03:34:34;75.22;;;37.42;;
24547;SDS011;12713;51.624;4.924;2023-05-10T03:37:01;72.78;;;37.55;;
24547;SDS011;12713;51.624;4.924;2023-05-10T03:39:27;62.38;;;34.97;;
24547;SDS011;12713;51.624;4.924;2023-05-10T03:41:53;53.00;;;29.55;;
24547;SDS011;12713;51.624;4.924;2023-05-10T03:44:19;64.65;;;33.33;;
24547;SDS011;12713;51.624;4.924;2023-05-10T03:46:45;68.47;;;37.97;;
24547;SDS011;12713;51.624;4.924;2023-05-10T03:49:11;66.78;;;35.83;;
24547;SDS011;12713;51.624;4.924;2023-05-10T03:51:37;69.97;;;37.42;;
24547;SDS011;12713;51.624;4.924;2023-05-10T03:54:03;68.68;;;36.85;;
24547;SDS011;12713;51.624;4.924;2023-05-10T03:56:29;65.22;;;35.53;;
24547;SDS011;12713;51.624;4.924;2023-05-10T03:58:55;71.70;;;38.17;;
24547;SDS011;12713;51.624;4.924;2023-05-10T04:01:21;61.65;;;35.10;;
24547;SDS011;12713;51.624;4.924;2023-05-10T04:03:47;64.20;;;35.58;;
24547;SDS011;12713;51.624;4.924;2023-05-10T04:06:13;58.92;;;34.70;;
24547;SDS011;12713;51.624;4.924;2023-05-10T04:08:39;57.55;;;35.50;;
24547;SDS011;12713;51.624;4.924;2023-05-10T04:11:06;53.83;;;32.42;;
24547;SDS011;12713;51.624;4.924;2023-05-10T04:13:32;68.00;;;37.45;;
24547;SDS011;12713;51.624;4.924;2023-05-10T04:15:58;69.65;;;39.40;;
24547;SDS011;12713;51.624;4.924;2023-05-10T04:18:25;73.53;;;39.75;;
24547;SDS011;12713;51.624;4.924;2023-05-10T04:20:51;74.57;;;37.88;;
24547;SDS011;12713;51.624;4.924;2023-05-10T04:23:17;71.55;;;37.90;;
24547;SDS011;12713;51.624;4.924;2023-05-10T04:25:43;61.17;;;33.95;;
24547;SDS011;12713;51.624;4.924;2023-05-10T04:28:09;57.25;;;34.25;;
24547;SDS011;12713;51.624;4.924;2023-05-10T04:30:35;51.45;;;28.52;;
24547;SDS011;12713;51.624;4.924;2023-05-10T04:33:01;51.50;;;28.95;;
24547;SDS011;12713;51.624;4.924;2023-05-10T04:35:27;50.28;;;28.67;;
24547;SDS011;12713;51.624;4.924;2023-05-10T04:37:53;44.85;;;25.92;;
24547;SDS011;12713;51.624;4.924;2023-05-10T04:40:19;46.53;;;28.35;;
24547;SDS011;12713;51.624;4.924;2023-05-10T04:42:49;44.13;;;25.60;;
24547;SDS011;12713;51.624;4.924;2023-05-10T04:45:15;45.13;;;24.88;;
24547;SDS011;12713;51.624;4.924;2023-05-10T04:47:41;44.03;;;24.58;;
24547;SDS011;12713;51.624;4.924;2023-05-10T04:50:07;35.60;;;23.38;;
24547;SDS011;12713;51.624;4.924;2023-05-10T04:52:33;42.75;;;25.75;;
24547;SDS011;12713;51.624;4.924;2023-05-10T04:54:59;45.00;;;25.60;;
24547;SDS011;12713;51.624;4.924;2023-05-10T04:57:26;36.90;;;24.08;;
24547;SDS011;12713;51.624;4.924;2023-05-10T04:59:52;46.63;;;27.00;;
24547;SDS011;12713;51.624;4.924;2023-05-10T05:02:18;51.05;;;28.88;;
24547;SDS011;12713;51.624;4.924;2023-05-10T05:04:44;40.25;;;26.17;;
24547;SDS011;12713;51.624;4.924;2023-05-10T05:07:10;47.75;;;27.90;;
24547;SDS011;12713;51.624;4.924;2023-05-10T05:09:36;44.20;;;27.83;;
24547;SDS011;12713;51.624;4.924;2023-05-10T05:12:02;45.85;;;26.13;;
24547;SDS011;12713;51.624;4.924;2023-05-10T05:14:28;51.15;;;30.70;;
24547;SDS011;12713;51.624;4.924;2023-05-10T05:16:54;54.90;;;32.53;;
24547;SDS011;12713;51.624;4.924;2023-05-10T05:19:20;57.97;;;33.90;;
24547;SDS011;12713;51.624;4.924;2023-05-10T05:21:47;54.13;;;31.65;;
24547;SDS011;12713;51.624;4.924;2023-05-10T05:24:13;63.20;;;34.53;;
24547;SDS011;12713;51.624;4.924;2023-05-10T05:26:39;78.18;;;36.13;;
24547;SDS011;12713;51.624;4.924;2023-05-10T05:29:05;73.85;;;37.55;;
24547;SDS011;12713;51.624;4.924;2023-05-10T05:31:31;73.13;;;37.95;;
24547;SDS011;12713;51.624;4.924;2023-05-10T05:33:57;76.80;;;40.10;;
24547;SDS011;12713;51.624;4.924;2023-05-10T05:36:23;80.93;;;40.28;;
24547;SDS011;12713;51.624;4.924;2023-05-10T05:38:49;75.65;;;38.72;;
24547;SDS011;12713;51.624;4.924;2023-05-10T05:41:15;75.85;;;40.75;;
24547;SDS011;12713;51.624;4.924;2023-05-10T05:43:41;78.13;;;42.10;;
24547;SDS011;12713;51.624;4.924;2023-05-10T05:46:07;80.95;;;43.25;;
24547;SDS011;12713;51.624;4.924;2023-05-10T05:48:33;100.40;;;46.17;;
24547;SDS011;12713;51.624;4.924;2023-05-10T05:51:00;83.15;;;45.13;;
24547;SDS011;12713;51.624;4.924;2023-05-10T05:53:26;87.13;;;44.10;;
24547;SDS011;12713;51.624;4.924;2023-05-10T05:58:19;76.57;;;42.65;;
24547;SDS011;12713;51.624;4.924;2023-05-10T06:00:45;82.28;;;43.97;;
24547;SDS011;12713;51.624;4.924;2023-05-10T06:03:11;63.72;;;36.88;;
24547;SDS011;12713;51.624;4.924;2023-05-10T06:05:37;75.55;;;38.03;;
24547;SDS011;12713;51.624;4.924;2023-05-10T06:08:03;60.53;;;33.83;;
24547;SDS011;12713;51.624;4.924;2023-05-10T06:10:29;53.92;;;28.95;;
24547;SDS011;12713;51.624;4.924;2023-05-10T06:12:55;55.90;;;30.17;;
24547;SDS011;12713;51.624;4.924;2023-05-10T06:15:21;48.88;;;27.85;;
24547;SDS011;12713;51.624;4.924;2023-05-10T06:17:47;51.17;;;29.00;;
24547;SDS011;12713;51.624;4.924;2023-05-10T06:20:16;47.28;;;28.73;;
24547;SDS011;12713;51.624;4.924;2023-05-10T06:22:42;47.63;;;27.48;;
24547;SDS011;12713;51.624;4.924;2023-05-10T06:25:08;42.30;;;28.15;;
24547;SDS011;12713;51.624;4.924;2023-05-10T06:27:35;38.72;;;25.58;;
24547;SDS011;12713;51.624;4.924;2023-05-10T06:30:01;43.15;;;27.13;;
24547;SDS011;12713;51.624;4.924;2023-05-10T06:32:27;50.13;;;27.55;;
24547;SDS011;12713;51.624;4.924;2023-05-10T06:34:53;45.15;;;25.17;;
24547;SDS011;12713;51.624;4.924;2023-05-10T06:37:20;45.58;;;24.80;;
24547;SDS011;12713;51.624;4.924;2023-05-10T06:39:46;37.38;;;25.15;;
24547;SDS011;12713;51.624;4.924;2023-05-10T06:42:12;34.90;;;24.23;;
24547;SDS011;12713;51.624;4.924;2023-05-10T06:44:38;33.83;;;22.02;;
24547;SDS011;12713;51.624;4.924;2023-05-10T06:47:04;34.03;;;22.08;;
24547;SDS011;12713;51.624;4.924;2023-05-10T06:49:30;38.05;;;22.70;;
24547;SDS011;12713;51.624;4.924;2023-05-10T06:51:56;30.98;;;20.55;;
24547;SDS011;12713;51.624;4.924;2023-05-10T06:54:22;39.33;;;22.63;;
24547;SDS011;12713;51.624;4.924;2023-05-10T06:56:48;37.03;;;20.98;;
24547;SDS011;12713;51.624;4.924;2023-05-10T06:59:14;32.67;;;23.02;;
24547;SDS011;12713;51.624;4.924;2023-05-10T07:01:41;33.13;;;21.00;;
24547;SDS011;12713;51.624;4.924;2023-05-10T07:04:07;30.38;;;19.58;;
24547;SDS011;12713;51.624;4.924;2023-05-10T07:06:34;29.67;;;18.58;;
24547;SDS011;12713;51.624;4.924;2023-05-10T07:09:00;22.45;;;15.35;;
24547;SDS011;12713;51.624;4.924;2023-05-10T07:11:26;26.23;;;15.82;;
24547;SDS011;12713;51.624;4.924;2023-05-10T07:13:52;27.48;;;14.25;;
24547;SDS011;12713;51.624;4.924;2023-05-10T07:16:18;19.83;;;11.82;;
24547;SDS011;12713;51.624;4.924;2023-05-10T07:18:44;18.38;;;12.25;;
24547;SDS011;12713;51.624;4.924;2023-05-10T07:21:10;18.35;;;10.77;;
24547;SDS011;12713;51.624;4.924;2023-05-10T07:23:36;12.85;;;10.50;;
24547;SDS011;12713;51.624;4.924;2023-05-10T07:26:03;19.92;;;10.02;;
24547;SDS011;12713;51.624;4.924;2023-05-10T07:28:29;17.90;;;9.90;;
24547;SDS011;12713;51.624;4.924;2023-05-10T07:30:55;12.68;;;8.50;;
24547;SDS011;12713;51.624;4.924;2023-05-10T07:33:21;13.85;;;7.75;;
24547;SDS011;12713;51.624;4.924;2023-05-10T07:35:47;14.63;;;7.75;;
24547;SDS011;12713;51.624;4.924;2023-05-10T07:38:13;12.77;;;7.38;;
24547;SDS011;12713;51.624;4.924;2023-05-10T07:40:39;14.00;;;7.50;;
24547;SDS011;12713;51.624;4.924;2023-05-10T07:43:05;10.82;;;7.50;;
24547;SDS011;12713;51.624;4.924;2023-05-10T07:45:31;13.73;;;7.13;;
24547;SDS011;12713;51.624;4.924;2023-05-10T07:47:57;10.90;;;7.93;;
24547;SDS011;12713;51.624;4.924;2023-05-10T07:50:23;12.50;;;7.40;;
24547;SDS011;12713;51.624;4.924;2023-05-10T07:52:49;11.30;;;7.70;;
24547;SDS011;12713;51.624;4.924;2023-05-10T07:55:16;12.25;;;7.18;;
24547;SDS011;12713;51.624;4.924;2023-05-10T07:57:43;11.23;;;7.90;;
24547;SDS011;12713;51.624;4.924;2023-05-10T08:00:12;12.40;;;7.95;;
24547;SDS011;12713;51.624;4.924;2023-05-10T08:02:38;13.40;;;7.30;;
24547;SDS011;12713;51.624;4.924;2023-05-10T08:05:05;15.27;;;8.35;;
24547;SDS011;12713;51.624;4.924;2023-05-10T08:07:31;13.95;;;8.75;;
24547;SDS011;12713;51.624;4.924;2023-05-10T08:09:57;15.57;;;9.10;;
24547;SDS011;12713;51.624;4.924;2023-05-10T08:12:23;11.43;;;7.82;;
24547;SDS011;12713;51.624;4.924;2023-05-10T08:14:49;12.38;;;8.60;;
24547;SDS011;12713;51.624;4.924;2023-05-10T08:17:15;13.00;;;8.68;;
24547;SDS011;12713;51.624;4.924;2023-05-10T08:19:41;14.00;;;8.57;;
24547;SDS011;12713;51.624;4.924;2023-05-10T08:22:07;11.30;;;9.48;;
24547;SDS011;12713;51.624;4.924;2023-05-10T08:24:33;15.23;;;10.50;;
24547;SDS011;12713;51.624;4.924;2023-05-10T08:27:03;20.83;;;10.15;;
24547;SDS011;12713;51.624;4.924;2023-05-10T08:29:29;12.35;;;9.07;;
24547;SDS011;12713;51.624;4.924;2023-05-10T08:31:55;12.88;;;8.73;;
24547;SDS011;12713;51.624;4.924;2023-05-10T08:34:21;12.77;;;9.15;;
24547;SDS011;12713;51.624;4.924;2023-05-10T08:36:47;15.82;;;10.18;;
24547;SDS011;12713;51.624;4.924;2023-05-10T08:39:13;11.20;;;9.27;;
24547;SDS011;12713;51.624;4.924;2023-05-10T08:41:39;11.55;;;8.95;;
24547;SDS011;12713;51.624;4.924;2023-05-10T08:44:05;14.27;;;8.40;;
24547;SDS011;12713;51.624;4.924;2023-05-10T08:46:33;11.90;;;7.88;;
24547;SDS011;12713;51.624;4.924;2023-05-10T08:49:02;9.73;;;7.57;;
24547;SDS011;12713;51.624;4.924;2023-05-10T08:51:29;12.75;;;7.78;;
24547;SDS011;12713;51.624;4.924;2023-05-10T08:53:57;9.70;;;6.80;;
24547;SDS011;12713;51.624;4.924;2023-05-10T08:56:24;10.50;;;6.45;;
24547;SDS011;12713;51.624;4.924;2023-05-10T08:58:50;10.23;;;6.63;;
24547;SDS011;12713;51.624;4.924;2023-05-10T09:01:16;8.70;;;6.90;;
24547;SDS011;12713;51.624;4.924;2023-05-10T09:03:42;8.10;;;4.85;;
24547;SDS011;12713;51.624;4.924;2023-05-10T09:06:09;7.95;;;6.15;;
24547;SDS011;12713;51.624;4.924;2023-05-10T09:08:38;7.50;;;5.53;;
24547;SDS011;12713;51.624;4.924;2023-05-10T09:11:04;10.75;;;6.13;;
24547;SDS011;12713;51.624;4.924;2023-05-10T09:13:30;11.52;;;6.60;;
24547;SDS011;12713;51.624;4.924;2023-05-10T09:15:57;8.27;;;5.50;;
24547;SDS011;12713;51.624;4.924;2023-05-10T09:18:23;13.85;;;6.35;;
24547;SDS011;12713;51.624;4.924;2023-05-10T09:20:49;9.85;;;6.15;;
24547;SDS011;12713;51.624;4.924;2023-05-10T09:23:15;9.20;;;5.38;;
24547;SDS011;12713;51.624;4.924;2023-05-10T09:25:41;9.85;;;6.50;;
24547;SDS011;12713;51.624;4.924;2023-05-10T09:28:08;9.68;;;6.07;;
24547;SDS011;12713;51.624;4.924;2023-05-10T09:30:34;12.77;;;6.78;;
24547;SDS011;12713;51.624;4.924;2023-05-10T09:33:01;13.60;;;7.90;;
24547;SDS011;12713;51.624;4.924;2023-05-10T09:35:28;12.05;;;7.72;;
24547;SDS011;12713;51.624;4.924;2023-05-10T09:37:55;12.95;;;8.07;;
24547;SDS011;12713;51.624;4.924;2023-05-10T09:43:06;11.88;;;7.80;;
24547;SDS011;12713;51.624;4.924;2023-05-10T09:45:33;10.38;;;7.07;;
24547;SDS011;12713;51.624;4.924;2023-05-10T09:48:00;14.23;;;7.90;;
24547;SDS011;12713;51.624;4.924;2023-05-10T09:50:27;10.15;;;7.28;;
24547;SDS011;12713;51.624;4.924;2023-05-10T09:52:57;10.27;;;7.13;;
24547;SDS011;12713;51.624;4.924;2023-05-10T09:55:45;9.20;;;5.47;;
24547;SDS011;12713;51.624;4.924;2023-05-10T09:58:11;7.75;;;4.68;;
24547;SDS011;12713;51.624;4.924;2023-05-10T10:00:37;8.55;;;5.65;;
24547;SDS011;12713;51.624;4.924;2023-05-10T10:03:04;12.48;;;5.45;;
24547;SDS011;12713;51.624;4.924;2023-05-10T10:05:31;8.55;;;4.72;;
24547;SDS011;12713;51.624;4.924;2023-05-10T10:07:57;9.38;;;4.97;;
24547;SDS011;12713;51.624;4.924;2023-05-10T10:10:24;8.80;;;4.60;;
24547;SDS011;12713;51.624;4.924;2023-05-10T10:12:51;8.13;;;4.90;;
24547;SDS011;12713;51.624;4.924;2023-05-10T10:15:17;5.60;;;4.50;;
24547;SDS011;12713;51.624;4.924;2023-05-10T10:17:43;13.35;;;4.15;;
24547;SDS011;12713;51.624;4.924;2023-05-10T10:20:10;6.80;;;3.58;;
24547;SDS011;12713;51.624;4.924;2023-05-10T10:22:36;5.80;;;3.60;;
24547;SDS011;12713;51.624;4.924;2023-05-10T10:25:03;6.53;;;4.00;;
24547;SDS011;12713;51.624;4.924;2023-05-10T10:27:39;5.47;;;4.00;;
24547;SDS011;12713;51.624;4.924;2023-05-10T10:30:19;5.68;;;4.78;;
24547;SDS011;12713;51.624;4.924;2023-05-10T10:35:14;5.88;;;4.75;;
24547;SDS011;12713;51.624;4.924;2023-05-10T10:37:42;8.60;;;4.85;;
24547;SDS011;12713;51.624;4.924;2023-05-10T10:42:54;7.60;;;2.92;;
24547;SDS011;12713;51.624;4.924;2023-05-10T10:45:20;4.88;;;3.38;;
24547;SDS011;12713;51.624;4.924;2023-05-10T10:47:47;4.90;;;3.00;;
24547;SDS011;12713;51.624;4.924;2023-05-10T10:50:13;4.75;;;3.13;;
24547;SDS011;12713;51.624;4.924;2023-05-10T10:52:44;6.85;;;3.90;;
24547;SDS011;12713;51.624;4.924;2023-05-10T10:55:11;8.63;;;4.15;;
24547;SDS011;12713;51.624;4.924;2023-05-10T11:02:53;6.28;;;4.28;;
24547;SDS011;12713;51.624;4.924;2023-05-10T11:05:23;5.63;;;4.40;;
24547;SDS011;12713;51.624;4.924;2023-05-10T11:07:56;8.50;;;4.90;;
24547;SDS011;12713;51.624;4.924;2023-05-10T11:10:23;5.93;;;4.20;;
24547;SDS011;12713;51.624;4.924;2023-05-10T11:15:19;6.95;;;4.18;;
24547;SDS011;12713;51.624;4.924;2023-05-10T11:17:47;5.90;;;4.05;;
24547;SDS011;12713;51.624;4.924;2023-05-10T11:20:16;7.70;;;4.57;;
24547;SDS011;12713;51.624;4.924;2023-05-10T11:22:54;4.85;;;3.40;;
24547;SDS011;12713;51.624;4.924;2023-05-10T11:25:26;5.07;;;3.38;;
24547;SDS011;12713;51.624;4.924;2023-05-10T11:27:53;8.60;;;3.45;;
24547;SDS011;12713;51.624;4.924;2023-05-10T11:30:19;6.40;;;3.30;;
24547;SDS011;12713;51.624;4.924;2023-05-10T11:32:45;7.72;;;4.35;;
24547;SDS011;12713;51.624;4.924;2023-05-10T11:35:11;5.00;;;4.35;;
24547;SDS011;12713;51.624;4.924;2023-05-10T11:37:38;7.15;;;4.68;;
24547;SDS011;12713;51.624;4.924;2023-05-10T11:40:08;7.28;;;4.72;;
24547;SDS011;12713;51.624;4.924;2023-05-10T11:42:37;9.93;;;4.97;;
24547;SDS011;12713;51.624;4.924;2023-05-10T11:45:04;8.73;;;4.93;;
24547;SDS011;12713;51.624;4.924;2023-05-10T11:47:33;6.68;;;4.93;;
24547;SDS011;12713;51.624;4.924;2023-05-10T11:50:02;7.07;;;5.03;;
24547;SDS011;12713;51.624;4.924;2023-05-10T11:52:28;8.88;;;4.97;;
24547;SDS011;12713;51.624;4.924;2023-05-10T11:54:54;8.35;;;5.55;;
24547;SDS011;12713;51.624;4.924;2023-05-10T11:57:21;9.52;;;5.03;;
24547;SDS011;12713;51.624;4.924;2023-05-10T11:59:47;8.10;;;5.00;;
24547;SDS011;12713;51.624;4.924;2023-05-10T12:02:13;7.35;;;4.88;;
24547;SDS011;12713;51.624;4.924;2023-05-10T12:04:40;5.53;;;4.10;;
24547;SDS011;12713;51.624;4.924;2023-05-10T12:07:06;4.70;;;3.83;;
24547;SDS011;12713;51.624;4.924;2023-05-10T12:09:32;7.57;;;4.32;;
24547;SDS011;12713;51.624;4.924;2023-05-10T12:11:58;10.43;;;5.80;;
24547;SDS011;12713;51.624;4.924;2023-05-10T12:14:24;12.07;;;5.78;;
24547;SDS011;12713;51.624;4.924;2023-05-10T12:16:50;16.15;;;7.75;;
24547;SDS011;12713;51.624;4.924;2023-05-10T12:19:20;12.27;;;6.13;;
24547;SDS011;12713;51.624;4.924;2023-05-10T12:21:46;8.70;;;5.32;;
24547;SDS011;12713;51.624;4.924;2023-05-10T12:24:12;10.77;;;4.63;;
24547;SDS011;12713;51.624;4.924;2023-05-10T12:26:41;8.88;;;4.15;;
24547;SDS011;12713;51.624;4.924;2023-05-10T12:29:19;6.22;;;3.92;;
24547;SDS011;12713;51.624;4.924;2023-05-10T12:31:49;6.75;;;3.90;;
24547;SDS011;12713;51.624;4.924;2023-05-10T12:34:34;9.27;;;3.72;;
24547;SDS011;12713;51.624;4.924;2023-05-10T12:37:03;11.48;;;4.10;;
24547;SDS011;12713;51.624;4.924;2023-05-10T12:39:43;6.57;;;3.72;;
24547;SDS011;12713;51.624;4.924;2023-05-10T12:42:09;7.13;;;3.88;;
24547;SDS011;12713;51.624;4.924;2023-05-10T12:44:35;8.23;;;3.85;;
24547;SDS011;12713;51.624;4.924;2023-05-10T12:47:01;9.30;;;3.65;;
24547;SDS011;12713;51.624;4.924;2023-05-10T12:49:27;6.15;;;3.35;;
24547;SDS011;12713;51.624;4.924;2023-05-10T12:51:53;6.40;;;3.30;;
24547;SDS011;12713;51.624;4.924;2023-05-10T12:54:19;6.90;;;3.20;;
24547;SDS011;12713;51.624;4.924;2023-05-10T12:56:45;7.40;;;3.25;;
24547;SDS011;12713;51.624;4.924;2023-05-10T12:59:11;7.05;;;3.50;;
24547;SDS011;12713;51.624;4.924;2023-05-10T13:01:37;9.23;;;3.28;;
24547;SDS011;12713;51.624;4.924;2023-05-10T13:04:04;5.70;;;2.65;;
24547;SDS011;12713;51.624;4.924;2023-05-10T13:06:30;6.75;;;3.25;;
24547;SDS011;12713;51.624;4.924;2023-05-10T13:08:56;8.00;;;3.35;;
24547;SDS011;12713;51.624;4.924;2023-05-10T13:11:22;3.65;;;2.80;;
24547;SDS011;12713;51.624;4.924;2023-05-10T13:13:48;4.43;;;3.03;;
24547;SDS011;12713;51.624;4.924;2023-05-10T13:16:14;3.55;;;2.78;;
24547;SDS011;12713;51.624;4.924;2023-05-10T13:18:41;9.02;;;2.72;;
24547;SDS011;12713;51.624;4.924;2023-05-10T13:21:07;6.40;;;3.00;;
24547;SDS011;12713;51.624;4.924;2023-05-10T13:23:33;4.88;;;2.90;;
24547;SDS011;12713;51.624;4.924;2023-05-10T13:25:59;4.82;;;3.17;;
24547;SDS011;12713;51.624;4.924;2023-05-10T13:28:25;4.15;;;2.60;;
24547;SDS011;12713;51.624;4.924;2023-05-10T13:30:51;6.28;;;2.92;;
24547;SDS011;12713;51.624;4.924;2023-05-10T13:33:17;5.57;;;3.08;;
24547;SDS011;12713;51.624;4.924;2023-05-10T13:35:43;6.05;;;2.70;;
24547;SDS011;12713;51.624;4.924;2023-05-10T13:38:10;4.22;;;2.60;;
24547;SDS011;12713;51.624;4.924;2023-05-10T13:40:36;4.80;;;2.30;;
24547;SDS011;12713;51.624;4.924;2023-05-10T13:43:02;4.47;;;2.63;;
24547;SDS011;12713;51.624;4.924;2023-05-10T13:45:28;5.65;;;2.67;;
24547;SDS011;12713;51.624;4.924;2023-05-10T13:47:54;5.38;;;2.70;;
24547;SDS011;12713;51.624;4.924;2023-05-10T13:50:20;7.88;;;2.60;;
24547;SDS011;12713;51.624;4.924;2023-05-10T13:52:46;5.25;;;2.28;;
24547;SDS011;12713;51.624;4.924;2023-05-10T13:55:12;5.80;;;2.30;;
24547;SDS011;12713;51.624;4.924;2023-05-10T13:57:39;6.07;;;2.13;;
24547;SDS011;12713;51.624;4.924;2023-05-10T14:00:05;7.53;;;2.58;;
24547;SDS011;12713;51.624;4.924;2023-05-10T14:02:31;5.85;;;1.92;;
24547;SDS011;12713;51.624;4.924;2023-05-10T14:04:57;2.92;;;1.73;;
24547;SDS011;12713;51.624;4.924;2023-05-10T14:07:23;5.57;;;1.90;;
24547;SDS011;12713;51.624;4.924;2023-05-10T14:09:49;5.18;;;2.17;;
24547;SDS011;12713;51.624;4.924;2023-05-10T14:12:15;5.53;;;2.30;;
24547;SDS011;12713;51.624;4.924;2023-05-10T14:14:41;4.43;;;2.10;;
24547;SDS011;12713;51.624;4.924;2023-05-10T14:17:07;3.53;;;2.17;;
24547;SDS011;12713;51.624;4.924;2023-05-10T14:19:33;6.32;;;2.35;;
24547;SDS011;12713;51.624;4.924;2023-05-10T14:21:59;5.43;;;1.98;;
24547;SDS011;12713;51.624;4.924;2023-05-10T14:24:25;3.15;;;1.80;;
24547;SDS011;12713;51.624;4.924;2023-05-10T14:26:51;6.75;;;2.63;;
24547;SDS011;12713;51.624;4.924;2023-05-10T14:29:19;5.55;;;2.10;;
24547;SDS011;12713;51.624;4.924;2023-05-10T14:31:45;5.20;;;2.85;;
24547;SDS011;12713;51.624;4.924;2023-05-10T14:34:11;5.35;;;2.75;;
24547;SDS011;12713;51.624;4.924;2023-05-10T14:36:37;4.78;;;2.65;;
24547;SDS011;12713;51.624;4.924;2023-05-10T14:39:03;8.75;;;3.00;;
24547;SDS011;12713;51.624;4.924;2023-05-10T14:41:29;7.63;;;3.30;;
24547;SDS011;12713;51.624;4.924;2023-05-10T14:43:55;8.35;;;3.20;;
24547;SDS011;12713;51.624;4.924;2023-05-10T14:46:22;5.82;;;2.80;;
24547;SDS011;12713;51.624;4.924;2023-05-10T14:48:48;5.53;;;2.83;;
24547;SDS011;12713;51.624;4.924;2023-05-10T14:51:14;4.32;;;2.28;;
24547;SDS011;12713;51.624;4.924;2023-05-10T14:53:40;3.45;;;2.13;;
24547;SDS011;12713;51.624;4.924;2023-05-10T14:56:06;3.85;;;2.58;;
24547;SDS011;12713;51.624;4.924;2023-05-10T14:58:32;4.03;;;2.50;;
24547;SDS011;12713;51.624;4.924;2023-05-10T15:00:58;4.88;;;2.25;;
24547;SDS011;12713;51.624;4.924;2023-05-10T15:03:24;6.78;;;3.33;;
24547;SDS011;12713;51.624;4.924;2023-05-10T15:05:50;5.55;;;2.90;;